sensor_id;sensor_type;location;lat;lon;timestamp;P1;durP1;ratioP1;P2;durP2;ratioP2
3549;SDS011;45572;48.804;8.330;2023-05-29T00:01:51;11.35;;;5.88;;
3549;SDS011;45572;48.804;8.330;2023-05-29T00:04:19;10.07;;;5.10;;
3549;SDS011;45572;48.804;8.330;2023-05-29T00:06:48;9.02;;;5.43;;
3549;SDS011;45572;48.804;8.330;2023-05-29T00:09:16;5.20;;;4.63;;
3549;SDS011;45572;48.804;8.330;2023-05-29T00:11:44;15.05;;;5.45;;
3549;SDS011;45572;48.804;8.330;2023-05-29T00:14:32;13.05;;;5.45;;
3549;SDS011;45572;48.804;8.330;2023-05-29T00:16:59;8.15;;;5.32;;
3549;SDS011;45572;48.804;8.330;2023-05-29T00:19:29;11.73;;;5.82;;
3549;SDS011;45572;48.804;8.330;2023-05-29T00:21:56;12.80;;;5.22;;
3549;SDS011;45572;48.804;8.330;2023-05-29T00:24:24;14.65;;;6.50;;
3549;SDS011;45572;48.804;8.330;2023-05-29T00:26:52;10.95;;;5.90;;
3549;SDS011;45572;48.804;8.330;2023-05-29T00:29:20;9.40;;;4.90;;
3549;SDS011;45572;48.804;8.330;2023-05-29T00:31:49;8.30;;;5.90;;
3549;SDS011;45572;48.804;8.330;2023-05-29T00:34:21;8.80;;;5.47;;
3549;SDS011;45572;48.804;8.330;2023-05-29T00:36:50;9.10;;;5.63;;
3549;SDS011;45572;48.804;8.330;2023-05-29T00:39:20;10.25;;;4.95;;
3549;SDS011;45572;48.804;8.330;2023-05-29T00:41:48;12.93;;;5.68;;
3549;SDS011;45572;48.804;8.330;2023-05-29T00:44:17;9.02;;;6.47;;
3549;SDS011;45572;48.804;8.330;2023-05-29T00:46:45;17.63;;;5.50;;
3549;SDS011;45572;48.804;8.330;2023-05-29T00:49:14;13.90;;;5.55;;
3549;SDS011;45572;48.804;8.330;2023-05-29T00:51:43;9.55;;;5.68;;
3549;SDS011;45572;48.804;8.330;2023-05-29T00:54:12;10.18;;;6.68;;
3549;SDS011;45572;48.804;8.330;2023-05-29T00:56:45;14.30;;;7.45;;
3549;SDS011;45572;48.804;8.330;2023-05-29T00:59:12;10.77;;;6.22;;
3549;SDS011;45572;48.804;8.330;2023-05-29T01:01:56;10.05;;;6.55;;
3549;SDS011;45572;48.804;8.330;2023-05-29T01:04:26;11.50;;;6.28;;
3549;SDS011;45572;48.804;8.330;2023-05-29T01:06:54;10.98;;;6.32;;
3549;SDS011;45572;48.804;8.330;2023-05-29T01:09:23;9.73;;;6.80;;
3549;SDS011;45572;48.804;8.330;2023-05-29T01:11:54;12.57;;;7.38;;
3549;SDS011;45572;48.804;8.330;2023-05-29T01:14:33;11.40;;;6.13;;
3549;SDS011;45572;48.804;8.330;2023-05-29T01:17:28;11.48;;;5.88;;
3549;SDS011;45572;48.804;8.330;2023-05-29T01:20:08;12.82;;;6.38;;
3549;SDS011;45572;48.804;8.330;2023-05-29T01:23:06;12.15;;;6.13;;
3549;SDS011;45572;48.804;8.330;2023-05-29T01:25:50;11.60;;;6.20;;
3549;SDS011;45572;48.804;8.330;2023-05-29T01:28:31;11.77;;;5.93;;
3549;SDS011;45572;48.804;8.330;2023-05-29T01:31:04;13.52;;;5.68;;
3549;SDS011;45572;48.804;8.330;2023-05-29T01:33:37;10.32;;;5.97;;
3549;SDS011;45572;48.804;8.330;2023-05-29T01:36:07;10.90;;;6.05;;
3549;SDS011;45572;48.804;8.330;2023-05-29T01:38:35;15.15;;;7.32;;
3549;SDS011;45572;48.804;8.330;2023-05-29T01:41:03;12.13;;;5.88;;
3549;SDS011;45572;48.804;8.330;2023-05-29T01:43:33;11.20;;;5.38;;
3549;SDS011;45572;48.804;8.330;2023-05-29T01:46:29;12.07;;;6.10;;
3549;SDS011;45572;48.804;8.330;2023-05-29T01:48:57;13.73;;;5.90;;
3549;SDS011;45572;48.804;8.330;2023-05-29T01:51:25;11.43;;;5.15;;
3549;SDS011;45572;48.804;8.330;2023-05-29T01:53:53;12.05;;;5.20;;
3549;SDS011;45572;48.804;8.330;2023-05-29T01:56:21;9.93;;;5.25;;
3549;SDS011;45572;48.804;8.330;2023-05-29T01:58:50;11.55;;;5.38;;
3549;SDS011;45572;48.804;8.330;2023-05-29T02:01:25;9.38;;;6.85;;
3549;SDS011;45572;48.804;8.330;2023-05-29T02:04:07;10.38;;;5.97;;
3549;SDS011;45572;48.804;8.330;2023-05-29T02:06:34;16.13;;;5.85;;
3549;SDS011;45572;48.804;8.330;2023-05-29T02:09:02;12.75;;;5.95;;
3549;SDS011;45572;48.804;8.330;2023-05-29T02:11:32;11.45;;;5.97;;
3549;SDS011;45572;48.804;8.330;2023-05-29T02:14:02;11.98;;;6.13;;
3549;SDS011;45572;48.804;8.330;2023-05-29T02:16:44;8.82;;;5.47;;
3549;SDS011;45572;48.804;8.330;2023-05-29T02:19:12;12.77;;;6.00;;
3549;SDS011;45572;48.804;8.330;2023-05-29T02:21:39;10.98;;;6.38;;
3549;SDS011;45572;48.804;8.330;2023-05-29T02:24:07;11.98;;;5.70;;
3549;SDS011;45572;48.804;8.330;2023-05-29T02:26:35;11.60;;;6.97;;
3549;SDS011;45572;48.804;8.330;2023-05-29T02:29:05;8.35;;;5.60;;
3549;SDS011;45572;48.804;8.330;2023-05-29T02:31:33;10.68;;;6.03;;
3549;SDS011;45572;48.804;8.330;2023-05-29T02:34:03;9.48;;;5.65;;
3549;SDS011;45572;48.804;8.330;2023-05-29T02:36:32;14.30;;;6.80;;
3549;SDS011;45572;48.804;8.330;2023-05-29T02:39:03;12.00;;;5.70;;
3549;SDS011;45572;48.804;8.330;2023-05-29T02:41:31;9.80;;;6.05;;
3549;SDS011;45572;48.804;8.330;2023-05-29T02:43:59;12.70;;;6.28;;
3549;SDS011;45572;48.804;8.330;2023-05-29T02:46:29;8.40;;;5.38;;
3549;SDS011;45572;48.804;8.330;2023-05-29T02:48:56;10.63;;;5.88;;
3549;SDS011;45572;48.804;8.330;2023-05-29T02:51:24;8.60;;;6.53;;
3549;SDS011;45572;48.804;8.330;2023-05-29T02:53:53;9.80;;;5.70;;
3549;SDS011;45572;48.804;8.330;2023-05-29T02:56:21;16.75;;;6.70;;
3549;SDS011;45572;48.804;8.330;2023-05-29T02:58:50;13.32;;;6.55;;
3549;SDS011;45572;48.804;8.330;2023-05-29T03:01:31;10.07;;;6.30;;
3549;SDS011;45572;48.804;8.330;2023-05-29T03:04:00;13.35;;;5.80;;
3549;SDS011;45572;48.804;8.330;2023-05-29T03:06:41;13.25;;;6.65;;
3549;SDS011;45572;48.804;8.330;2023-05-29T03:09:09;11.65;;;5.60;;
3549;SDS011;45572;48.804;8.330;2023-05-29T03:11:37;11.35;;;6.53;;
3549;SDS011;45572;48.804;8.330;2023-05-29T03:14:08;11.82;;;6.30;;
3549;SDS011;45572;48.804;8.330;2023-05-29T03:16:37;9.30;;;5.95;;
3549;SDS011;45572;48.804;8.330;2023-05-29T03:19:06;12.40;;;6.75;;
3549;SDS011;45572;48.804;8.330;2023-05-29T03:21:35;12.68;;;5.30;;
3549;SDS011;45572;48.804;8.330;2023-05-29T03:24:03;7.90;;;6.05;;
3549;SDS011;45572;48.804;8.330;2023-05-29T03:26:33;8.35;;;5.22;;
3549;SDS011;45572;48.804;8.330;2023-05-29T03:29:03;10.57;;;6.00;;
3549;SDS011;45572;48.804;8.330;2023-05-29T03:31:47;11.07;;;5.95;;
3549;SDS011;45572;48.804;8.330;2023-05-29T03:34:21;11.82;;;5.95;;
3549;SDS011;45572;48.804;8.330;2023-05-29T03:36:56;11.55;;;6.07;;
3549;SDS011;45572;48.804;8.330;2023-05-29T03:39:26;10.57;;;5.63;;
3549;SDS011;45572;48.804;8.330;2023-05-29T03:42:08;12.75;;;6.80;;
3549;SDS011;45572;48.804;8.330;2023-05-29T03:44:36;12.88;;;6.70;;
3549;SDS011;45572;48.804;8.330;2023-05-29T03:47:06;10.63;;;6.10;;
3549;SDS011;45572;48.804;8.330;2023-05-29T03:49:37;8.68;;;5.38;;
3549;SDS011;45572;48.804;8.330;2023-05-29T03:52:06;12.32;;;6.60;;
3549;SDS011;45572;48.804;8.330;2023-05-29T03:54:34;9.63;;;6.55;;
3549;SDS011;45572;48.804;8.330;2023-05-29T03:57:02;9.35;;;5.90;;
3549;SDS011;45572;48.804;8.330;2023-05-29T03:59:31;9.55;;;5.82;;
3549;SDS011;45572;48.804;8.330;2023-05-29T04:01:59;13.20;;;5.55;;
3549;SDS011;45572;48.804;8.330;2023-05-29T04:04:30;8.63;;;5.53;;
3549;SDS011;45572;48.804;8.330;2023-05-29T04:06:58;10.07;;;6.47;;
3549;SDS011;45572;48.804;8.330;2023-05-29T04:09:27;10.98;;;6.07;;
3549;SDS011;45572;48.804;8.330;2023-05-29T04:11:54;10.38;;;5.63;;
3549;SDS011;45572;48.804;8.330;2023-05-29T04:14:22;11.18;;;5.75;;
3549;SDS011;45572;48.804;8.330;2023-05-29T04:16:50;11.35;;;5.30;;
3549;SDS011;45572;48.804;8.330;2023-05-29T04:19:18;11.02;;;6.00;;
3549;SDS011;45572;48.804;8.330;2023-05-29T04:21:51;10.32;;;5.15;;
3549;SDS011;45572;48.804;8.330;2023-05-29T04:24:19;12.73;;;5.88;;
3549;SDS011;45572;48.804;8.330;2023-05-29T04:26:47;9.35;;;6.18;;
3549;SDS011;45572;48.804;8.330;2023-05-29T04:29:17;7.13;;;5.18;;
3549;SDS011;45572;48.804;8.330;2023-05-29T04:31:49;9.55;;;5.70;;
3549;SDS011;45572;48.804;8.330;2023-05-29T04:34:31;10.23;;;6.20;;
3549;SDS011;45572;48.804;8.330;2023-05-29T04:37:02;13.70;;;6.30;;
3549;SDS011;45572;48.804;8.330;2023-05-29T04:39:37;10.75;;;6.55;;
3549;SDS011;45572;48.804;8.330;2023-05-29T04:42:06;12.65;;;7.05;;
3549;SDS011;45572;48.804;8.330;2023-05-29T04:44:35;10.80;;;6.05;;
3549;SDS011;45572;48.804;8.330;2023-05-29T04:47:04;11.57;;;5.75;;
3549;SDS011;45572;48.804;8.330;2023-05-29T04:49:33;10.65;;;5.40;;
3549;SDS011;45572;48.804;8.330;2023-05-29T04:52:04;9.57;;;6.10;;
3549;SDS011;45572;48.804;8.330;2023-05-29T04:54:33;8.55;;;5.90;;
3549;SDS011;45572;48.804;8.330;2023-05-29T04:57:01;11.00;;;5.60;;
3549;SDS011;45572;48.804;8.330;2023-05-29T04:59:43;10.30;;;5.75;;
3549;SDS011;45572;48.804;8.330;2023-05-29T05:02:13;10.65;;;5.85;;
3549;SDS011;45572;48.804;8.330;2023-05-29T05:04:41;12.60;;;6.20;;
3549;SDS011;45572;48.804;8.330;2023-05-29T05:07:11;10.05;;;5.45;;
3549;SDS011;45572;48.804;8.330;2023-05-29T05:09:39;8.02;;;5.47;;
3549;SDS011;45572;48.804;8.330;2023-05-29T05:12:11;12.77;;;6.45;;
3549;SDS011;45572;48.804;8.330;2023-05-29T05:14:39;8.18;;;5.53;;
3549;SDS011;45572;48.804;8.330;2023-05-29T05:17:07;7.95;;;4.47;;
3549;SDS011;45572;48.804;8.330;2023-05-29T05:19:35;8.82;;;5.07;;
3549;SDS011;45572;48.804;8.330;2023-05-29T05:22:06;8.35;;;5.28;;
3549;SDS011;45572;48.804;8.330;2023-05-29T05:24:38;7.90;;;4.65;;
3549;SDS011;45572;48.804;8.330;2023-05-29T05:27:20;8.02;;;5.30;;
3549;SDS011;45572;48.804;8.330;2023-05-29T05:29:47;8.45;;;5.18;;
3549;SDS011;45572;48.804;8.330;2023-05-29T05:32:15;9.27;;;5.05;;
3549;SDS011;45572;48.804;8.330;2023-05-29T05:35:04;6.28;;;4.32;;
3549;SDS011;45572;48.804;8.330;2023-05-29T05:37:48;8.20;;;5.72;;
3549;SDS011;45572;48.804;8.330;2023-05-29T05:40:17;9.68;;;5.72;;
3549;SDS011;45572;48.804;8.330;2023-05-29T05:42:55;11.13;;;5.70;;
3549;SDS011;45572;48.804;8.330;2023-05-29T05:45:56;7.55;;;5.00;;
3549;SDS011;45572;48.804;8.330;2023-05-29T05:48:42;9.50;;;6.30;;
3549;SDS011;45572;48.804;8.330;2023-05-29T05:51:10;10.52;;;5.47;;
3549;SDS011;45572;48.804;8.330;2023-05-29T05:53:40;12.15;;;6.32;;
3549;SDS011;45572;48.804;8.330;2023-05-29T05:56:09;10.93;;;5.20;;
3549;SDS011;45572;48.804;8.330;2023-05-29T05:58:44;7.78;;;5.60;;
3549;SDS011;45572;48.804;8.330;2023-05-29T06:01:12;7.90;;;5.30;;
3549;SDS011;45572;48.804;8.330;2023-05-29T06:03:40;12.43;;;5.80;;
3549;SDS011;45572;48.804;8.330;2023-05-29T06:06:08;9.53;;;5.67;;
3549;SDS011;45572;48.804;8.330;2023-05-29T06:08:38;8.53;;;5.43;;
3549;SDS011;45572;48.804;8.330;2023-05-29T06:11:07;8.57;;;5.50;;
3549;SDS011;45572;48.804;8.330;2023-05-29T06:13:39;7.40;;;5.03;;
3549;SDS011;45572;48.804;8.330;2023-05-29T06:16:13;9.80;;;5.53;;
3549;SDS011;45572;48.804;8.330;2023-05-29T06:18:42;8.30;;;5.50;;
3549;SDS011;45572;48.804;8.330;2023-05-29T06:21:12;8.03;;;5.60;;
3549;SDS011;45572;48.804;8.330;2023-05-29T06:23:47;8.83;;;4.73;;
3549;SDS011;45572;48.804;8.330;2023-05-29T06:26:16;13.37;;;5.97;;
3549;SDS011;45572;48.804;8.330;2023-05-29T06:28:44;6.57;;;4.80;;
3549;SDS011;45572;48.804;8.330;2023-05-29T06:31:12;9.50;;;5.37;;
3549;SDS011;45572;48.804;8.330;2023-05-29T06:33:54;6.20;;;4.60;;
3549;SDS011;45572;48.804;8.330;2023-05-29T06:36:36;6.50;;;4.30;;
3549;SDS011;45572;48.804;8.330;2023-05-29T06:39:04;8.37;;;4.10;;
3549;SDS011;45572;48.804;8.330;2023-05-29T06:41:48;4.87;;;3.70;;
3549;SDS011;45572;48.804;8.330;2023-05-29T06:44:17;8.03;;;4.40;;
3549;SDS011;45572;48.804;8.330;2023-05-29T06:46:46;5.93;;;3.90;;
3549;SDS011;45572;48.804;8.330;2023-05-29T06:49:15;6.37;;;3.60;;
3549;SDS011;45572;48.804;8.330;2023-05-29T06:51:43;7.77;;;3.63;;
3549;SDS011;45572;48.804;8.330;2023-05-29T06:54:21;9.63;;;4.13;;
3549;SDS011;45572;48.804;8.330;2023-05-29T06:56:51;4.57;;;3.53;;
3549;SDS011;45572;48.804;8.330;2023-05-29T06:59:35;4.37;;;3.37;;
3549;SDS011;45572;48.804;8.330;2023-05-29T07:02:13;5.83;;;3.10;;
3549;SDS011;45572;48.804;8.330;2023-05-29T07:04:44;8.73;;;3.70;;
3549;SDS011;45572;48.804;8.330;2023-05-29T07:07:13;5.27;;;3.27;;
3549;SDS011;45572;48.804;8.330;2023-05-29T07:09:40;5.90;;;3.13;;
3549;SDS011;45572;48.804;8.330;2023-05-29T07:12:10;4.90;;;3.23;;
3549;SDS011;45572;48.804;8.330;2023-05-29T07:14:38;6.53;;;3.70;;
3549;SDS011;45572;48.804;8.330;2023-05-29T07:17:06;8.57;;;3.17;;
3549;SDS011;45572;48.804;8.330;2023-05-29T07:19:35;7.23;;;3.77;;
3549;SDS011;45572;48.804;8.330;2023-05-29T07:22:04;12.17;;;4.73;;
3549;SDS011;45572;48.804;8.330;2023-05-29T07:24:32;6.77;;;3.80;;
3549;SDS011;45572;48.804;8.330;2023-05-29T07:27:02;4.23;;;3.73;;
3549;SDS011;45572;48.804;8.330;2023-05-29T07:29:32;9.13;;;3.13;;
3549;SDS011;45572;48.804;8.330;2023-05-29T07:32:00;5.80;;;3.00;;
3549;SDS011;45572;48.804;8.330;2023-05-29T07:34:30;6.60;;;3.80;;
3549;SDS011;45572;48.804;8.330;2023-05-29T07:36:59;6.50;;;3.50;;
3549;SDS011;45572;48.804;8.330;2023-05-29T07:39:29;3.63;;;2.60;;
3549;SDS011;45572;48.804;8.330;2023-05-29T07:42:00;6.13;;;3.10;;
3549;SDS011;45572;48.804;8.330;2023-05-29T07:44:29;9.20;;;3.03;;
3549;SDS011;45572;48.804;8.330;2023-05-29T07:46:58;4.80;;;3.00;;
3549;SDS011;45572;48.804;8.330;2023-05-29T07:49:33;4.00;;;2.90;;
3549;SDS011;45572;48.804;8.330;2023-05-29T07:52:02;4.67;;;3.23;;
3549;SDS011;45572;48.804;8.330;2023-05-29T07:54:31;10.70;;;3.27;;
3549;SDS011;45572;48.804;8.330;2023-05-29T07:57:01;3.80;;;2.93;;
3549;SDS011;45572;48.804;8.330;2023-05-29T07:59:31;4.50;;;3.17;;
3549;SDS011;45572;48.804;8.330;2023-05-29T08:02:00;3.87;;;3.00;;
3549;SDS011;45572;48.804;8.330;2023-05-29T08:04:43;4.93;;;3.20;;
3549;SDS011;45572;48.804;8.330;2023-05-29T08:07:12;4.87;;;3.47;;
3549;SDS011;45572;48.804;8.330;2023-05-29T08:09:40;4.30;;;3.10;;
3549;SDS011;45572;48.804;8.330;2023-05-29T08:12:08;6.00;;;3.50;;
3549;SDS011;45572;48.804;8.330;2023-05-29T08:14:36;7.23;;;2.77;;
3549;SDS011;45572;48.804;8.330;2023-05-29T08:17:05;3.17;;;2.50;;
3549;SDS011;45572;48.804;8.330;2023-05-29T08:19:34;6.80;;;3.00;;
3549;SDS011;45572;48.804;8.330;2023-05-29T08:22:02;5.53;;;3.17;;
3549;SDS011;45572;48.804;8.330;2023-05-29T08:24:30;5.57;;;2.77;;
3549;SDS011;45572;48.804;8.330;2023-05-29T08:26:58;4.50;;;2.57;;
3549;SDS011;45572;48.804;8.330;2023-05-29T08:29:26;5.33;;;3.50;;
3549;SDS011;45572;48.804;8.330;2023-05-29T08:31:53;5.40;;;3.00;;
3549;SDS011;45572;48.804;8.330;2023-05-29T08:34:23;5.60;;;2.90;;
3549;SDS011;45572;48.804;8.330;2023-05-29T08:36:51;3.97;;;3.00;;
3549;SDS011;45572;48.804;8.330;2023-05-29T08:39:21;3.40;;;2.50;;
3549;SDS011;45572;48.804;8.330;2023-05-29T08:41:50;3.67;;;2.80;;
3549;SDS011;45572;48.804;8.330;2023-05-29T08:44:25;5.93;;;3.03;;
3549;SDS011;45572;48.804;8.330;2023-05-29T08:47:00;3.50;;;2.93;;
3549;SDS011;45572;48.804;8.330;2023-05-29T08:49:34;5.87;;;3.03;;
3549;SDS011;45572;48.804;8.330;2023-05-29T08:52:09;5.40;;;3.10;;
3549;SDS011;45572;48.804;8.330;2023-05-29T08:54:40;5.70;;;3.27;;
3549;SDS011;45572;48.804;8.330;2023-05-29T08:57:08;3.80;;;2.83;;
3549;SDS011;45572;48.804;8.330;2023-05-29T08:59:39;5.20;;;3.07;;
3549;SDS011;45572;48.804;8.330;2023-05-29T09:02:09;4.67;;;2.67;;
3549;SDS011;45572;48.804;8.330;2023-05-29T09:04:42;5.03;;;3.93;;
3549;SDS011;45572;48.804;8.330;2023-05-29T09:07:13;9.30;;;3.90;;
3549;SDS011;45572;48.804;8.330;2023-05-29T09:09:41;4.17;;;2.57;;
3549;SDS011;45572;48.804;8.330;2023-05-29T09:12:11;4.37;;;2.90;;
3549;SDS011;45572;48.804;8.330;2023-05-29T09:14:41;6.97;;;3.57;;
3549;SDS011;45572;48.804;8.330;2023-05-29T09:17:12;5.30;;;2.87;;
3549;SDS011;45572;48.804;8.330;2023-05-29T09:19:42;4.13;;;2.90;;
3549;SDS011;45572;48.804;8.330;2023-05-29T09:22:13;5.80;;;2.93;;
3549;SDS011;45572;48.804;8.330;2023-05-29T09:24:42;4.23;;;2.90;;
3549;SDS011;45572;48.804;8.330;2023-05-29T09:27:15;5.77;;;3.50;;
3549;SDS011;45572;48.804;8.330;2023-05-29T09:29:45;5.23;;;2.80;;
3549;SDS011;45572;48.804;8.330;2023-05-29T09:32:14;3.10;;;2.50;;
3549;SDS011;45572;48.804;8.330;2023-05-29T09:34:44;4.13;;;3.00;;
3549;SDS011;45572;48.804;8.330;2023-05-29T09:37:12;5.30;;;3.17;;
3549;SDS011;45572;48.804;8.330;2023-05-29T09:39:44;3.63;;;3.23;;
3549;SDS011;45572;48.804;8.330;2023-05-29T09:42:13;4.60;;;2.33;;
3549;SDS011;45572;48.804;8.330;2023-05-29T09:44:44;5.57;;;3.63;;
3549;SDS011;45572;48.804;8.330;2023-05-29T09:47:17;8.83;;;3.53;;
3549;SDS011;45572;48.804;8.330;2023-05-29T09:49:46;5.27;;;3.00;;
3549;SDS011;45572;48.804;8.330;2023-05-29T09:52:14;3.97;;;3.30;;
3549;SDS011;45572;48.804;8.330;2023-05-29T09:54:48;5.00;;;2.80;;
3549;SDS011;45572;48.804;8.330;2023-05-29T09:57:17;4.37;;;2.47;;
3549;SDS011;45572;48.804;8.330;2023-05-29T09:59:45;5.50;;;3.23;;
3549;SDS011;45572;48.804;8.330;2023-05-29T10:02:17;8.10;;;3.80;;
3549;SDS011;45572;48.804;8.330;2023-05-29T10:04:47;3.57;;;2.80;;
3549;SDS011;45572;48.804;8.330;2023-05-29T10:07:19;4.73;;;2.83;;
3549;SDS011;45572;48.804;8.330;2023-05-29T10:09:52;6.10;;;3.57;;
3549;SDS011;45572;48.804;8.330;2023-05-29T10:12:25;4.37;;;3.80;;
3549;SDS011;45572;48.804;8.330;2023-05-29T10:14:56;5.60;;;3.73;;
3549;SDS011;45572;48.804;8.330;2023-05-29T10:17:28;5.03;;;2.70;;
3549;SDS011;45572;48.804;8.330;2023-05-29T10:20:02;5.00;;;3.53;;
3549;SDS011;45572;48.804;8.330;2023-05-29T10:22:33;5.73;;;2.83;;
3549;SDS011;45572;48.804;8.330;2023-05-29T10:25:06;3.80;;;3.13;;
3549;SDS011;45572;48.804;8.330;2023-05-29T10:27:36;4.43;;;2.90;;
3549;SDS011;45572;48.804;8.330;2023-05-29T10:30:07;5.00;;;2.70;;
3549;SDS011;45572;48.804;8.330;2023-05-29T10:32:40;4.00;;;2.97;;
3549;SDS011;45572;48.804;8.330;2023-05-29T10:35:22;3.60;;;3.10;;
3549;SDS011;45572;48.804;8.330;2023-05-29T10:37:59;7.10;;;2.77;;
3549;SDS011;45572;48.804;8.330;2023-05-29T10:40:37;4.33;;;3.27;;
3549;SDS011;45572;48.804;8.330;2023-05-29T10:43:05;4.70;;;3.03;;
3549;SDS011;45572;48.804;8.330;2023-05-29T10:45:47;4.73;;;3.30;;
3549;SDS011;45572;48.804;8.330;2023-05-29T10:51:06;4.63;;;3.33;;
3549;SDS011;45572;48.804;8.330;2023-05-29T10:53:37;3.13;;;2.63;;
3549;SDS011;45572;48.804;8.330;2023-05-29T10:56:08;3.80;;;2.83;;
3549;SDS011;45572;48.804;8.330;2023-05-29T10:58:45;5.33;;;3.43;;
3549;SDS011;45572;48.804;8.330;2023-05-29T11:01:20;5.07;;;3.00;;
3549;SDS011;45572;48.804;8.330;2023-05-29T11:03:49;3.50;;;2.80;;
3549;SDS011;45572;48.804;8.330;2023-05-29T11:06:20;7.73;;;3.57;;
3549;SDS011;45572;48.804;8.330;2023-05-29T11:08:53;4.77;;;2.60;;
3549;SDS011;45572;48.804;8.330;2023-05-29T11:11:30;3.37;;;2.90;;
3549;SDS011;45572;48.804;8.330;2023-05-29T11:14:01;3.53;;;2.83;;
3549;SDS011;45572;48.804;8.330;2023-05-29T11:16:35;6.27;;;3.23;;
3549;SDS011;45572;48.804;8.330;2023-05-29T11:19:04;3.80;;;2.80;;
3549;SDS011;45572;48.804;8.330;2023-05-29T11:21:38;6.63;;;2.90;;
3549;SDS011;45572;48.804;8.330;2023-05-29T11:24:20;6.53;;;3.20;;
3549;SDS011;45572;48.804;8.330;2023-05-29T11:26:50;7.07;;;2.87;;
3549;SDS011;45572;48.804;8.330;2023-05-29T11:29:21;5.23;;;3.50;;
3549;SDS011;45572;48.804;8.330;2023-05-29T11:31:54;4.03;;;3.47;;
3549;SDS011;45572;48.804;8.330;2023-05-29T11:34:27;3.90;;;3.40;;
3549;SDS011;45572;48.804;8.330;2023-05-29T11:36:57;4.97;;;3.40;;
3549;SDS011;45572;48.804;8.330;2023-05-29T11:39:29;4.97;;;2.83;;
3549;SDS011;45572;48.804;8.330;2023-05-29T11:41:59;5.60;;;3.00;;
3549;SDS011;45572;48.804;8.330;2023-05-29T11:44:28;3.97;;;3.17;;
3549;SDS011;45572;48.804;8.330;2023-05-29T11:47:00;6.27;;;3.63;;
3549;SDS011;45572;48.804;8.330;2023-05-29T11:49:30;4.23;;;3.27;;
3549;SDS011;45572;48.804;8.330;2023-05-29T11:52:09;5.40;;;3.07;;
3549;SDS011;45572;48.804;8.330;2023-05-29T11:54:40;4.50;;;3.60;;
3549;SDS011;45572;48.804;8.330;2023-05-29T11:57:17;7.13;;;3.33;;
3549;SDS011;45572;48.804;8.330;2023-05-29T11:59:46;4.57;;;2.90;;
3549;SDS011;45572;48.804;8.330;2023-05-29T12:02:15;7.20;;;3.53;;
3549;SDS011;45572;48.804;8.330;2023-05-29T12:04:43;4.93;;;3.07;;
3549;SDS011;45572;48.804;8.330;2023-05-29T12:07:20;5.50;;;3.17;;
3549;SDS011;45572;48.804;8.330;2023-05-29T12:09:48;5.03;;;3.43;;
3549;SDS011;45572;48.804;8.330;2023-05-29T12:12:19;5.00;;;3.63;;
3549;SDS011;45572;48.804;8.330;2023-05-29T12:14:49;4.77;;;2.70;;
3549;SDS011;45572;48.804;8.330;2023-05-29T12:17:17;4.20;;;2.63;;
3549;SDS011;45572;48.804;8.330;2023-05-29T12:19:46;5.73;;;3.10;;
3549;SDS011;45572;48.804;8.330;2023-05-29T12:22:14;5.63;;;3.00;;
3549;SDS011;45572;48.804;8.330;2023-05-29T12:24:44;7.40;;;2.90;;
3549;SDS011;45572;48.804;8.330;2023-05-29T12:27:12;6.23;;;2.87;;
3549;SDS011;45572;48.804;8.330;2023-05-29T12:29:41;4.60;;;2.80;;
3549;SDS011;45572;48.804;8.330;2023-05-29T12:32:10;5.13;;;3.40;;
3549;SDS011;45572;48.804;8.330;2023-05-29T12:34:38;5.00;;;2.70;;
3549;SDS011;45572;48.804;8.330;2023-05-29T12:37:07;4.90;;;2.73;;
3549;SDS011;45572;48.804;8.330;2023-05-29T12:39:39;6.70;;;3.40;;
3549;SDS011;45572;48.804;8.330;2023-05-29T12:42:09;4.70;;;2.67;;
3549;SDS011;45572;48.804;8.330;2023-05-29T12:44:38;6.60;;;2.90;;
3549;SDS011;45572;48.804;8.330;2023-05-29T12:47:06;3.30;;;2.40;;
3549;SDS011;45572;48.804;8.330;2023-05-29T12:49:35;6.47;;;3.53;;
3549;SDS011;45572;48.804;8.330;2023-05-29T12:52:05;4.00;;;2.70;;
3549;SDS011;45572;48.804;8.330;2023-05-29T12:54:34;6.33;;;3.90;;
3549;SDS011;45572;48.804;8.330;2023-05-29T12:57:01;3.40;;;2.50;;
3549;SDS011;45572;48.804;8.330;2023-05-29T12:59:34;4.70;;;3.20;;
3549;SDS011;45572;48.804;8.330;2023-05-29T13:02:05;9.20;;;3.53;;
3549;SDS011;45572;48.804;8.330;2023-05-29T13:04:37;6.07;;;3.33;;
3549;SDS011;45572;48.804;8.330;2023-05-29T13:07:05;5.83;;;3.30;;
3549;SDS011;45572;48.804;8.330;2023-05-29T13:09:33;8.50;;;3.43;;
3549;SDS011;45572;48.804;8.330;2023-05-29T13:12:01;4.30;;;3.07;;
3549;SDS011;45572;48.804;8.330;2023-05-29T13:14:30;6.37;;;3.80;;
3549;SDS011;45572;48.804;8.330;2023-05-29T13:16:59;5.33;;;3.37;;
3549;SDS011;45572;48.804;8.330;2023-05-29T13:19:27;4.57;;;3.20;;
3549;SDS011;45572;48.804;8.330;2023-05-29T13:21:55;7.80;;;3.17;;
3549;SDS011;45572;48.804;8.330;2023-05-29T13:24:24;6.63;;;3.80;;
3549;SDS011;45572;48.804;8.330;2023-05-29T13:26:52;6.30;;;3.63;;
3549;SDS011;45572;48.804;8.330;2023-05-29T13:29:20;6.27;;;3.70;;
3549;SDS011;45572;48.804;8.330;2023-05-29T13:31:48;5.20;;;3.00;;
3549;SDS011;45572;48.804;8.330;2023-05-29T13:34:17;6.23;;;3.83;;
3549;SDS011;45572;48.804;8.330;2023-05-29T13:36:46;6.40;;;3.53;;
3549;SDS011;45572;48.804;8.330;2023-05-29T13:39:14;4.43;;;3.40;;
3549;SDS011;45572;48.804;8.330;2023-05-29T13:41:42;5.40;;;2.80;;
3549;SDS011;45572;48.804;8.330;2023-05-29T13:44:10;5.57;;;3.00;;
3549;SDS011;45572;48.804;8.330;2023-05-29T13:46:38;4.70;;;3.10;;
3549;SDS011;45572;48.804;8.330;2023-05-29T13:49:07;5.63;;;3.80;;
3549;SDS011;45572;48.804;8.330;2023-05-29T13:51:36;4.40;;;2.87;;
3549;SDS011;45572;48.804;8.330;2023-05-29T13:54:04;4.93;;;3.63;;
3549;SDS011;45572;48.804;8.330;2023-05-29T13:56:32;4.90;;;3.00;;
3549;SDS011;45572;48.804;8.330;2023-05-29T13:59:01;7.60;;;3.10;;
3549;SDS011;45572;48.804;8.330;2023-05-29T14:01:32;5.77;;;3.53;;
3549;SDS011;45572;48.804;8.330;2023-05-29T14:04:01;6.23;;;2.97;;
3549;SDS011;45572;48.804;8.330;2023-05-29T14:06:29;5.60;;;3.30;;
3549;SDS011;45572;48.804;8.330;2023-05-29T14:08:59;9.10;;;3.50;;
3549;SDS011;45572;48.804;8.330;2023-05-29T14:11:28;5.13;;;3.27;;
3549;SDS011;45572;48.804;8.330;2023-05-29T14:13:56;6.20;;;3.37;;
3549;SDS011;45572;48.804;8.330;2023-05-29T14:16:24;4.63;;;3.47;;
3549;SDS011;45572;48.804;8.330;2023-05-29T14:18:52;4.13;;;3.13;;
3549;SDS011;45572;48.804;8.330;2023-05-29T14:21:20;3.73;;;2.80;;
3549;SDS011;45572;48.804;8.330;2023-05-29T14:23:47;5.10;;;3.13;;
3549;SDS011;45572;48.804;8.330;2023-05-29T14:26:17;5.40;;;3.07;;
3549;SDS011;45572;48.804;8.330;2023-05-29T14:28:44;4.70;;;2.73;;
3549;SDS011;45572;48.804;8.330;2023-05-29T14:31:12;5.03;;;3.07;;
3549;SDS011;45572;48.804;8.330;2023-05-29T14:33:40;4.40;;;3.50;;
3549;SDS011;45572;48.804;8.330;2023-05-29T14:36:08;5.60;;;4.30;;
3549;SDS011;45572;48.804;8.330;2023-05-29T14:38:37;4.80;;;3.37;;
3549;SDS011;45572;48.804;8.330;2023-05-29T14:41:05;7.40;;;3.10;;
3549;SDS011;45572;48.804;8.330;2023-05-29T14:43:37;4.90;;;3.40;;
3549;SDS011;45572;48.804;8.330;2023-05-29T14:46:05;4.77;;;3.30;;
3549;SDS011;45572;48.804;8.330;2023-05-29T14:48:33;7.37;;;3.30;;
3549;SDS011;45572;48.804;8.330;2023-05-29T14:51:01;4.93;;;3.23;;
3549;SDS011;45572;48.804;8.330;2023-05-29T14:53:31;5.03;;;3.07;;
3549;SDS011;45572;48.804;8.330;2023-05-29T14:55:59;4.50;;;2.70;;
3549;SDS011;45572;48.804;8.330;2023-05-29T14:58:27;3.73;;;2.47;;
3549;SDS011;45572;48.804;8.330;2023-05-29T15:00:58;5.60;;;3.33;;
3549;SDS011;45572;48.804;8.330;2023-05-29T15:03:27;6.47;;;3.13;;
3549;SDS011;45572;48.804;8.330;2023-05-29T15:05:56;4.27;;;2.90;;
3549;SDS011;45572;48.804;8.330;2023-05-29T15:08:24;5.83;;;3.40;;
3549;SDS011;45572;48.804;8.330;2023-05-29T15:10:54;3.70;;;2.57;;
3549;SDS011;45572;48.804;8.330;2023-05-29T15:13:22;3.93;;;2.63;;
3549;SDS011;45572;48.804;8.330;2023-05-29T15:15:50;4.03;;;2.37;;
3549;SDS011;45572;48.804;8.330;2023-05-29T15:18:19;3.60;;;3.00;;
3549;SDS011;45572;48.804;8.330;2023-05-29T15:20:47;4.40;;;2.80;;
3549;SDS011;45572;48.804;8.330;2023-05-29T15:23:15;4.50;;;2.53;;